createdAt,value
2018-06-18T00:02:20.996Z,7.25
2018-06-18T00:04:51.446Z,5.00
2018-06-18T00:07:22.223Z,4.75
2018-06-18T00:09:53.897Z,4.50
2018-06-18T00:12:24.489Z,4.25
2018-06-18T00:14:56.287Z,6.00
2018-06-18T00:17:27.478Z,5.75
2018-06-18T00:19:58.772Z,7.00
2018-06-18T00:22:31.350Z,5.25
2018-06-18T00:25:01.834Z,5.25
2018-06-18T00:27:33.330Z,5.00
2018-06-18T00:30:07.180Z,6.00
2018-06-18T00:32:38.948Z,4.00
2018-06-18T00:35:10.509Z,4.00
2018-06-18T00:37:41.033Z,4.75
2018-06-18T00:40:13.499Z,5.00
2018-06-18T00:42:43.847Z,4.00
2018-06-18T00:45:17.454Z,5.00
2018-06-18T00:47:48.725Z,6.25
2018-06-18T00:50:19.345Z,4.00
2018-06-18T00:52:51.876Z,6.00
2018-06-18T00:55:33.679Z,7.25
2018-06-18T00:58:04.313Z,5.00
2018-06-18T01:00:35.142Z,4.75
2018-06-18T01:03:07.101Z,4.25
2018-06-18T01:05:39.035Z,4.25
2018-06-18T01:08:09.836Z,6.00
2018-06-18T01:10:46.668Z,5.00
2018-06-18T01:13:19.392Z,4.75
2018-06-18T01:15:49.912Z,6.50
2018-06-18T01:18:21.641Z,5.75
2018-06-18T01:20:54.068Z,5.00
2018-06-18T01:23:42.624Z,4.50
2018-06-18T01:26:14.334Z,5.00
2018-06-18T01:28:45.683Z,6.75
2018-06-18T01:31:16.227Z,5.25
2018-06-18T01:33:46.964Z,6.75
2018-06-18T01:36:18.782Z,5.25
2018-06-18T01:38:49.621Z,5.25
2018-06-18T01:41:21.013Z,5.00
2018-06-18T01:43:51.452Z,6.00
2018-06-18T01:46:22.200Z,6.00
2018-06-18T01:48:53.010Z,6.00
2018-06-18T01:51:23.470Z,5.25
2018-06-18T01:53:54.542Z,7.75
2018-06-18T01:56:30.962Z,6.00
2018-06-18T01:59:05.372Z,7.00
2018-06-18T02:01:39.524Z,8.50
2018-06-18T02:04:12.289Z,6.75
2018-06-18T02:06:42.995Z,7.50
2018-06-18T02:09:14.915Z,8.00
2018-06-18T02:11:47.308Z,8.25
2018-06-18T02:14:18.264Z,9.00
2018-06-18T02:16:55.686Z,8.75
2018-06-18T02:19:26.811Z,8.25
2018-06-18T02:22:03.262Z,7.00
2018-06-18T02:24:34.686Z,10.00
2018-06-18T02:27:19.490Z,11.25
2018-06-18T02:33:14.425Z,10.00
2018-06-18T02:35:51.080Z,9.00
2018-06-18T02:38:29.603Z,10.00
2018-06-18T02:41:08.761Z,10.25
2018-06-18T02:43:39.069Z,9.00
2018-06-18T02:46:10.464Z,7.75
2018-06-18T02:48:42.359Z,10.00
2018-06-18T02:51:12.791Z,8.50
2018-06-18T02:53:53.732Z,10.00
2018-06-18T02:56:33.029Z,11.00
2018-06-18T02:59:10.314Z,10.00
2018-06-18T03:01:53.121Z,9.25
2018-06-18T03:04:24.187Z,11.00
2018-06-18T03:06:57.996Z,12.00
2018-06-18T03:09:30.863Z,9.00
2018-06-18T03:12:04.053Z,11.75
2018-06-18T03:14:34.481Z,14.00
2018-06-18T03:17:07.438Z,10.75
2018-06-18T03:19:48.897Z,13.50
2018-06-18T03:22:24.697Z,11.75
2018-06-18T03:25:02.167Z,11.50
2018-06-18T03:27:37.785Z,12.00
2018-06-18T03:30:08.611Z,11.75
2018-06-18T03:32:39.552Z,10.00
2018-06-18T03:35:09.935Z,15.75
2018-06-18T03:37:47.444Z,11.00
2018-06-18T03:40:19.943Z,10.00
2018-06-18T03:42:50.352Z,12.00
2018-06-18T03:45:26.790Z,10.75
2018-06-18T03:48:01.371Z,11.50
2018-06-18T03:50:31.841Z,10.25
2018-06-18T03:53:03.731Z,11.25
2018-06-18T03:55:48.259Z,12.75
2018-06-18T03:58:19.807Z,13.00
2018-06-18T04:03:25.855Z,13.25
2018-06-18T04:08:04.670Z,16.25
2018-06-18T04:10:47.070Z,13.00
2018-06-18T04:13:24.895Z,12.75
2018-06-18T04:15:56.748Z,12.00
2018-06-18T04:18:28.885Z,12.00
2018-06-18T04:23:41.601Z,12.75
2018-06-18T04:26:20.545Z,12.00
2018-06-18T04:28:55.845Z,12.25
2018-06-18T04:31:27.560Z,14.00
2018-06-18T04:34:18.721Z,14.00
2018-06-18T04:36:49.079Z,11.00
2018-06-18T04:39:23.753Z,12.50
2018-06-18T04:42:02.959Z,11.75
2018-06-18T04:44:39.755Z,15.50
2018-06-18T04:47:16.083Z,11.75
2018-06-18T04:49:58.115Z,12.25
2018-06-18T04:52:33.856Z,11.00
2018-06-18T04:55:04.324Z,11.75
2018-06-18T04:57:39.629Z,14.25
2018-06-18T05:00:25.042Z,13.50
2018-06-18T05:02:58.468Z,11.00
2018-06-18T05:05:31.906Z,11.75
2018-06-18T05:08:53.135Z,13.00
2018-06-18T05:11:25.277Z,13.25
2018-06-18T05:13:56.338Z,10.75
2018-06-18T05:16:27.865Z,12.25
2018-06-18T05:18:59.783Z,12.75
2018-06-18T05:21:31.073Z,10.25
2018-06-18T05:24:03.805Z,12.25
2018-06-18T05:26:38.782Z,12.00
2018-06-18T05:31:53.356Z,12.25
2018-06-18T05:34:26.108Z,13.00
2018-06-18T05:36:58.890Z,9.75
2018-06-18T05:39:29.272Z,12.75
2018-06-18T05:42:02.618Z,12.00
2018-06-18T05:44:37.503Z,12.25
2018-06-18T05:47:08.744Z,10.25
2018-06-18T05:49:41.013Z,10.00
2018-06-18T05:52:12.100Z,10.50
2018-06-18T05:54:42.545Z,13.50
2018-06-18T05:57:14.231Z,12.50
2018-06-18T05:59:52.169Z,11.75
2018-06-18T06:02:27.693Z,12.25
2018-06-18T06:04:58.595Z,11.00
2018-06-18T06:10:27.130Z,9.50
2018-06-18T06:12:58.231Z,13.25
2018-06-18T06:15:29.846Z,12.00
2018-06-18T06:18:00.446Z,11.75
2018-06-18T06:20:31.524Z,11.25
2018-06-18T06:25:39.826Z,11.75
2018-06-18T06:28:16.899Z,12.25
2018-06-18T06:30:55.106Z,10.50
2018-06-18T06:33:28.064Z,13.00
2018-06-18T06:36:02.853Z,10.75
2018-06-18T06:38:35.368Z,8.00
2018-06-18T06:41:09.098Z,10.75
2018-06-18T06:43:42.793Z,11.25
2018-06-18T06:46:14.812Z,14.00
2018-06-18T06:49:00.643Z,12.00
2018-06-18T06:51:31.614Z,9.50
2018-06-18T06:54:02.594Z,11.00
2018-06-18T06:56:33.457Z,10.75
2018-06-18T06:59:03.999Z,9.00
2018-06-18T07:01:35.616Z,10.25
2018-06-18T07:04:06.527Z,10.00
2018-06-18T07:06:36.976Z,9.25
2018-06-18T07:09:13.404Z,7.25
2018-06-18T07:11:45.917Z,8.25
2018-06-18T07:14:16.816Z,9.00
2018-06-18T07:16:52.065Z,8.75
2018-06-18T07:19:24.618Z,10.00
2018-06-18T07:21:59.575Z,7.75
2018-06-18T07:24:31.957Z,8.25
2018-06-18T07:27:03.102Z,8.00
2018-06-18T07:29:33.541Z,7.25
2018-06-18T07:32:08.401Z,8.50
2018-06-18T07:34:40.662Z,9.00
2018-06-18T07:37:16.700Z,8.25
2018-06-18T07:39:47.046Z,9.25
2018-06-18T07:42:18.721Z,8.00
2018-06-18T07:44:50.043Z,7.00
2018-06-18T07:47:26.614Z,8.00
2018-06-18T07:50:00.057Z,7.50
2018-06-18T07:52:33.012Z,7.75
2018-06-18T07:55:05.551Z,8.00
2018-06-18T07:57:37.582Z,9.25
2018-06-18T08:00:10.107Z,8.50
2018-06-18T08:02:45.463Z,8.75
2018-06-18T08:05:27.582Z,10.00
2018-06-18T08:07:59.746Z,7.00
2018-06-18T08:10:31.212Z,7.25
2018-06-18T08:13:08.961Z,7.75
2018-06-18T08:15:44.714Z,6.75
2018-06-18T08:18:22.910Z,7.50
2018-06-18T08:20:59.083Z,8.00
2018-06-18T08:23:30.370Z,5.50
2018-06-18T08:26:06.836Z,7.00
2018-06-18T08:28:38.645Z,7.00
2018-06-18T08:31:10.133Z,7.00
2018-06-18T08:33:44.450Z,6.00
2018-06-18T08:36:16.086Z,6.50
2018-06-18T08:38:48.345Z,6.25
2018-06-18T08:41:25.522Z,6.75
2018-06-18T08:43:59.718Z,7.25
2018-06-18T08:46:32.164Z,6.75
2018-06-18T08:49:05.310Z,7.00
2018-06-18T08:51:43.407Z,7.25
2018-06-18T08:54:20.285Z,7.00
2018-06-18T08:56:58.008Z,8.00
2018-06-18T08:59:37.997Z,7.00
2018-06-18T09:02:08.787Z,5.25
2018-06-18T09:04:52.679Z,6.25
2018-06-18T09:07:31.412Z,5.75
2018-06-18T09:10:04.397Z,7.00
2018-06-18T09:12:38.935Z,6.50
2018-06-18T09:15:10.509Z,6.25
2018-06-18T09:17:44.937Z,7.25
2018-06-18T09:20:18.311Z,6.75
2018-06-18T09:22:50.659Z,6.25
2018-06-18T09:25:22.422Z,5.50
2018-06-18T09:28:14.930Z,5.75
2018-06-18T09:30:54.516Z,6.75
2018-06-18T09:33:24.905Z,7.00
2018-06-18T09:35:59.203Z,5.00
2018-06-18T09:38:39.615Z,5.75
2018-06-18T09:41:15.044Z,7.00
2018-06-18T09:43:47.691Z,10.50
2018-06-18T09:46:22.143Z,13.00
2018-06-18T09:49:00.264Z,9.00
2018-06-18T09:51:41.410Z,9.00
2018-06-18T09:54:19.480Z,7.00
2018-06-18T09:56:58.418Z,10.00
2018-06-18T09:59:43.552Z,7.00
2018-06-18T10:02:20.365Z,5.50
2018-06-18T10:05:02.642Z,5.50
2018-06-18T10:07:45.744Z,6.75
2018-06-18T10:10:16.444Z,7.75
2018-06-18T10:12:57.833Z,5.75
2018-06-18T10:15:31.683Z,8.50
2018-06-18T10:18:04.071Z,7.25
2018-06-18T10:23:44.653Z,4.50
2018-06-18T10:26:17.584Z,6.25
2018-06-18T10:28:51.232Z,7.50
2018-06-18T10:31:23.248Z,5.25
2018-06-18T10:34:08.647Z,3.50
2018-06-18T10:36:45.730Z,4.25
2018-06-18T10:39:24.994Z,5.00
2018-06-18T10:42:01.342Z,4.25
2018-06-18T10:44:34.534Z,4.50
2018-06-18T10:47:21.513Z,4.50
2018-06-18T10:50:14.953Z,4.50
2018-06-18T10:52:49.635Z,5.75
2018-06-18T10:55:24.625Z,4.50
2018-06-18T10:58:11.398Z,4.00
2018-06-18T11:01:50.765Z,4.00
2018-06-18T11:04:48.769Z,4.75
2018-06-18T11:07:20.785Z,7.75
2018-06-18T11:09:59.392Z,5.75
2018-06-18T11:12:31.306Z,5.75
2018-06-18T11:15:08.334Z,7.00
2018-06-18T11:20:44.397Z,5.50
2018-06-18T11:23:37.418Z,7.75
2018-06-18T11:26:19.342Z,8.00
2018-06-18T11:31:54.124Z,6.25
2018-06-18T11:34:48.818Z,5.75
2018-06-18T11:37:30.723Z,7.25
2018-06-18T11:40:23.814Z,7.00
2018-06-18T11:43:03.644Z,7.75
2018-06-18T11:45:40.370Z,8.00
2018-06-18T11:48:30.658Z,7.25
2018-06-18T11:51:10.546Z,7.00
2018-06-18T11:53:45.404Z,9.00
2018-06-18T11:56:26.964Z,9.75
2018-06-18T12:02:06.147Z,6.00
2018-06-18T12:04:47.821Z,7.75
2018-06-18T12:07:25.725Z,7.00
2018-06-18T12:10:06.372Z,6.50
2018-06-18T12:55:27.647Z,7.00
2018-06-18T12:58:09.606Z,6.00
2018-06-18T13:00:43.926Z,7.00
2018-06-18T13:03:24.543Z,8.00
2018-06-18T13:05:57.364Z,6.75
2018-06-18T13:08:31.862Z,5.75
2018-06-18T13:14:20.017Z,7.00
2018-06-18T13:16:51.460Z,8.00
2018-06-18T13:19:22.781Z,6.50
2018-06-18T13:22:31.173Z,6.75
2018-06-18T13:25:02.123Z,6.25
2018-06-18T13:27:40.428Z,5.75
2018-06-18T13:30:20.225Z,5.75
2018-06-18T13:33:07.199Z,6.25
2018-06-18T13:35:38.160Z,6.50
2018-06-18T13:38:19.776Z,7.00
2018-06-18T13:43:26.492Z,6.50
2018-06-18T13:48:41.963Z,6.50
2018-06-18T13:51:20.649Z,6.50
2018-06-18T13:53:54.940Z,6.25
2018-06-18T13:56:28.683Z,6.25
2018-06-18T13:59:04.996Z,5.00
2018-06-18T14:01:45.145Z,5.50
2018-06-18T14:04:19.481Z,5.75
2018-06-18T14:06:50.498Z,5.75
2018-06-18T14:09:22.328Z,4.50
2018-06-18T14:11:58.539Z,5.50
2018-06-18T14:14:31.100Z,6.75
2018-06-18T14:17:04.283Z,6.75
2018-06-18T14:19:44.180Z,5.50
2018-06-18T14:22:15.683Z,5.75
2018-06-18T14:24:48.139Z,5.50
2018-06-18T14:27:20.140Z,5.25
2018-06-18T14:30:05.772Z,5.50
2018-06-18T14:32:44.640Z,7.00
2018-06-18T14:35:27.269Z,6.50
2018-06-18T14:38:06.565Z,5.00
2018-06-18T14:40:36.994Z,7.75
2018-06-18T14:43:08.325Z,5.50
2018-06-18T14:45:38.910Z,5.25
2018-06-18T14:48:10.355Z,6.00
2018-06-18T14:50:43.320Z,4.75
2018-06-18T14:53:19.380Z,4.75
2018-06-18T14:55:55.028Z,5.50
2018-06-18T14:58:27.230Z,3.75
2018-06-18T15:00:59.915Z,5.50
2018-06-18T15:03:31.839Z,3.50
2018-06-18T15:06:19.929Z,5.00
2018-06-18T15:08:51.423Z,6.00
2018-06-18T15:11:23.762Z,6.00
2018-06-18T15:13:59.379Z,5.25
2018-06-18T15:16:40.792Z,4.25
2018-06-18T15:19:11.067Z,5.50
2018-06-18T15:21:51.410Z,6.25
2018-06-18T15:24:34.455Z,5.50
2018-06-18T15:27:08.848Z,5.50
2018-06-18T15:29:39.175Z,8.25
2018-06-18T15:32:15.431Z,5.25
2018-06-18T15:37:25.794Z,4.50
2018-06-18T15:39:59.382Z,3.50
2018-06-18T15:42:31.505Z,5.50
2018-06-18T15:45:03.855Z,5.50
2018-06-18T15:47:50.914Z,4.50
2018-06-18T15:50:21.561Z,4.75
2018-06-18T15:52:54.478Z,6.25
2018-06-18T15:55:27.784Z,6.00
2018-06-18T15:57:59.839Z,5.00
2018-06-18T16:00:31.724Z,4.25
2018-06-18T16:03:03.806Z,3.75
2018-06-18T16:05:43.684Z,4.50
2018-06-18T16:08:19.905Z,5.50
2018-06-18T16:10:53.569Z,3.50
2018-06-18T16:13:25.116Z,3.75
2018-06-18T16:15:58.211Z,2.50
2018-06-18T16:18:29.569Z,3.75
2018-06-18T16:21:01.233Z,3.50
2018-06-18T16:23:31.929Z,3.25
2018-06-18T16:26:15.300Z,2.50
2018-06-18T16:28:47.564Z,5.50
2018-06-18T16:31:19.982Z,3.00
2018-06-18T16:33:54.495Z,4.50
2018-06-18T16:36:25.530Z,3.50
2018-06-18T16:38:56.871Z,4.50
2018-06-18T16:41:55.983Z,3.50
2018-06-18T16:44:38.072Z,4.50
2018-06-18T16:47:08.624Z,3.50
2018-06-18T16:49:39.176Z,3.75
2018-06-18T16:52:12.579Z,4.50
2018-06-18T16:54:47.393Z,5.00
2018-06-18T16:57:20.240Z,5.50
2018-06-18T17:02:45.990Z,6.75
2018-06-18T17:05:18.461Z,9.50
2018-06-18T17:07:53.549Z,8.50
2018-06-18T17:10:25.079Z,9.25
2018-06-18T17:13:02.942Z,8.50
2018-06-18T17:15:33.398Z,7.50
2018-06-18T17:18:05.508Z,9.00
2018-06-18T17:20:36.216Z,6.50
2018-06-18T17:23:08.831Z,7.50
2018-06-18T17:25:39.947Z,7.75
2018-06-18T17:28:10.260Z,8.25
2018-06-18T17:30:43.824Z,6.75
2018-06-18T17:33:18.662Z,14.25
2018-06-18T17:35:51.417Z,9.75
2018-06-18T17:38:23.513Z,13.00
2018-06-18T17:41:00.414Z,10.00
2018-06-18T17:43:32.682Z,8.75
2018-06-18T17:46:07.950Z,9.50
2018-06-18T17:48:41.511Z,10.00
2018-06-18T17:51:13.418Z,12.75
2018-06-18T17:53:49.878Z,13.75
2018-06-18T17:56:21.211Z,13.00
2018-06-18T17:58:55.290Z,13.25
2018-06-18T18:01:33.259Z,9.00
2018-06-18T18:04:06.925Z,5.75
2018-06-18T18:06:48.672Z,8.75
2018-06-18T18:09:26.078Z,7.50
2018-06-18T18:12:01.269Z,9.75
2018-06-18T18:14:40.769Z,9.00
2018-06-18T18:17:22.732Z,8.75
2018-06-18T18:20:04.807Z,11.00
2018-06-18T18:22:40.312Z,10.50
2018-06-18T18:25:16.567Z,9.00
2018-06-18T18:27:49.662Z,9.00
2018-06-18T18:30:21.462Z,12.50
2018-06-18T18:32:58.220Z,10.00
2018-06-18T18:35:33.567Z,12.75
2018-06-18T18:38:15.471Z,13.75
2018-06-18T18:41:08.560Z,10.75
2018-06-18T18:43:41.184Z,12.75
2018-06-18T18:46:19.544Z,11.75
2018-06-18T18:51:35.654Z,13.50
2018-06-18T18:54:06.622Z,11.50
2018-06-18T18:56:50.314Z,12.00
2018-06-18T18:59:29.770Z,11.00
2018-06-18T19:02:02.684Z,10.75
2018-06-18T19:04:43.217Z,9.75
2018-06-18T19:07:16.572Z,10.25
2018-06-18T19:09:57.252Z,11.75
2018-06-18T19:12:32.495Z,9.00
2018-06-18T19:15:15.363Z,11.00
2018-06-18T19:17:47.247Z,11.50
2018-06-18T19:20:28.985Z,10.00
2018-06-18T19:23:00.940Z,13.00
2018-06-18T19:25:32.161Z,12.75
2018-06-18T19:28:05.847Z,11.00
2018-06-18T19:30:42.237Z,12.25
2018-06-18T19:35:25.388Z,11.75
2018-06-18T19:41:09.229Z,9.50
2018-06-18T19:43:45.686Z,9.50
2018-06-18T19:48:50.601Z,10.25
2018-06-18T19:51:42.713Z,12.25
2018-06-18T19:54:20.789Z,13.00
2018-06-18T19:56:56.138Z,12.50
2018-06-18T19:59:32.308Z,11.00
2018-06-18T20:02:21.348Z,9.75
2018-06-18T20:04:58.110Z,6.75
2018-06-18T20:07:36.125Z,8.00
2018-06-18T20:12:42.206Z,8.50
2018-06-18T20:23:36.729Z,10.75
2018-06-18T20:26:24.988Z,11.50
2018-06-18T20:29:00.400Z,11.50
2018-06-18T20:31:33.679Z,11.25
2018-06-18T20:34:06.215Z,11.00
2018-06-18T20:39:26.922Z,10.50
2018-06-18T20:42:01.261Z,10.00
2018-06-18T20:44:33.567Z,9.25
2018-06-18T20:47:09.129Z,9.00
2018-06-18T20:49:48.826Z,8.25
2018-06-18T20:52:23.499Z,8.75
2018-06-18T20:55:01.218Z,8.00
2018-06-18T20:57:36.441Z,9.00
2018-06-18T21:00:24.090Z,8.25
2018-06-18T21:03:03.446Z,7.00
2018-06-18T21:05:38.196Z,8.75
2018-06-18T21:08:10.658Z,8.00
2018-06-18T21:10:46.229Z,8.75
2018-06-18T21:13:19.666Z,8.50
2018-06-18T21:16:19.224Z,8.75
2018-06-18T21:18:54.177Z,8.75
2018-06-18T21:21:29.759Z,10.00
2018-06-18T21:24:05.308Z,9.00
2018-06-18T21:26:35.969Z,9.50
2018-06-18T21:29:08.202Z,8.25
2018-06-18T21:31:43.686Z,9.75
2018-06-18T21:34:17.891Z,9.75
2018-06-18T21:36:54.520Z,9.00
2018-06-18T21:39:24.823Z,8.25
2018-06-18T21:41:57.442Z,11.00
2018-06-18T21:45:37.608Z,9.00
2018-06-18T21:48:09.647Z,14.75
2018-06-18T21:50:58.011Z,10.00
2018-06-18T21:53:30.696Z,9.25
2018-06-18T21:56:06.939Z,11.00
2018-06-18T21:58:37.714Z,8.25
2018-06-18T22:01:09.924Z,9.00
2018-06-18T22:03:41.789Z,9.75
2018-06-18T22:06:13.494Z,10.25
2018-06-18T22:08:43.985Z,9.75
2018-06-18T22:11:15.346Z,8.50
2018-06-18T22:13:49.623Z,10.75
2018-06-18T22:16:26.416Z,11.00
2018-06-18T22:18:58.351Z,11.25
2018-06-18T22:21:33.166Z,9.25
2018-06-18T22:24:06.371Z,11.00
2018-06-18T22:26:40.043Z,8.75
2018-06-18T22:29:11.921Z,8.50
2018-06-18T22:31:45.452Z,8.00
2018-06-18T22:34:16.710Z,15.25
2018-06-18T22:39:27.454Z,9.00
2018-06-18T22:41:59.335Z,10.75
2018-06-18T22:44:37.776Z,11.00
2018-06-18T22:47:14.758Z,9.50
2018-06-18T22:49:48.270Z,11.75
2018-06-18T22:52:18.716Z,10.00
2018-06-18T22:54:53.716Z,9.75
2018-06-18T22:57:36.523Z,8.75
2018-06-18T23:00:24.325Z,12.50
2018-06-18T23:02:56.410Z,14.00
2018-06-18T23:05:31.942Z,13.50
2018-06-18T23:08:06.664Z,12.75
2018-06-18T23:10:37.925Z,14.25
2018-06-18T23:13:12.419Z,10.50
2018-06-18T23:15:44.313Z,11.75
2018-06-18T23:18:14.860Z,9.25
2018-06-18T23:20:49.139Z,8.75
2018-06-18T23:23:26.442Z,12.00
2018-06-18T23:25:57.841Z,12.75
2018-06-18T23:28:39.431Z,13.50
2018-06-18T23:31:11.058Z,11.75
2018-06-18T23:33:43.237Z,12.75
2018-06-18T23:36:13.679Z,10.50
2018-06-18T23:38:45.998Z,10.00
2018-06-18T23:41:16.307Z,10.00
2018-06-18T23:43:47.380Z,9.00
2018-06-18T23:46:18.790Z,9.00
2018-06-18T23:48:53.272Z,10.75
2018-06-18T23:51:24.558Z,10.00
2018-06-18T23:53:57.658Z,9.00
2018-06-18T23:56:30.834Z,12.25
2018-06-18T23:59:02.302Z,7.50
